createdAt,value
2019-05-07T00:01:33.915Z,64.10
2019-05-07T00:06:35.118Z,63.46
2019-05-07T00:11:36.763Z,63.90
2019-05-07T00:16:42.021Z,62.93
2019-05-07T00:21:43.160Z,63.04
2019-05-07T00:26:44.629Z,63.62
2019-05-07T00:31:46.203Z,63.47
2019-05-07T00:37:02.701Z,64.49
2019-05-07T00:42:08.745Z,65.44
2019-05-07T00:47:10.203Z,63.97
2019-05-07T00:52:14.046Z,65.25
2019-05-07T00:57:15.051Z,64.09
2019-05-07T01:02:16.526Z,65.71
2019-05-07T01:07:19.198Z,64.84
2019-05-07T01:12:22.333Z,65.32
2019-05-07T01:17:24.031Z,66.06
2019-05-07T01:22:25.918Z,66.85
2019-05-07T01:27:27.692Z,66.55
2019-05-07T01:32:42.420Z,67.30
2019-05-07T01:37:43.587Z,66.71
2019-05-07T01:42:45.074Z,66.74
2019-05-07T01:47:46.699Z,67.19
2019-05-07T01:52:48.174Z,66.68
2019-05-07T01:57:49.659Z,66.63
2019-05-07T02:02:55.867Z,66.44
2019-05-07T02:07:59.252Z,67.79
2019-05-07T02:13:02.315Z,66.66
2019-05-07T02:18:04.158Z,66.62
2019-05-07T02:23:05.778Z,67.31
2019-05-07T02:28:07.250Z,67.84
2019-05-07T02:33:08.723Z,68.02
2019-05-07T02:38:13.879Z,67.38
2019-05-07T02:43:16.013Z,67.62
2019-05-07T02:48:19.436Z,67.83
2019-05-07T02:53:22.954Z,67.73
2019-05-07T02:58:24.473Z,67.41
2019-05-07T03:03:26.050Z,67.96
2019-05-07T03:08:27.923Z,68.39
2019-05-07T03:13:29.501Z,68.55
2019-05-07T03:18:33.404Z,67.83
2019-05-07T03:23:42.645Z,68.96
2019-05-07T03:28:53.610Z,68.44
2019-05-07T03:33:56.543Z,69.09
2019-05-07T03:38:58.480Z,68.38
2019-05-07T03:44:03.749Z,68.71
2019-05-07T03:49:07.305Z,68.55
2019-05-07T03:54:09.884Z,67.43
2019-05-07T03:59:13.027Z,68.94
2019-05-07T04:04:14.610Z,69.12
2019-05-07T04:09:16.089Z,69.09
2019-05-07T04:14:17.659Z,68.67
2019-05-07T04:19:19.218Z,69.15
2019-05-07T04:24:23.603Z,68.34
2019-05-07T04:29:25.206Z,70.00
2019-05-07T04:34:45.051Z,68.50
2019-05-07T04:39:48.443Z,69.35
2019-05-07T04:44:53.733Z,69.33
2019-05-07T04:49:53.910Z,69.53
2019-05-07T04:54:55.605Z,68.31
2019-05-07T04:59:58.260Z,68.67
2019-05-07T05:05:02.535Z,68.47
2019-05-07T05:10:06.483Z,69.50
2019-05-07T05:15:08.663Z,68.76
2019-05-07T05:20:13.112Z,67.81
2019-05-07T05:25:15.318Z,68.05
2019-05-07T05:30:21.974Z,67.22
2019-05-07T05:35:23.655Z,66.94
2019-05-07T05:40:25.244Z,67.66
2019-05-07T05:45:33.496Z,67.52
2019-05-07T05:50:37.351Z,64.98
2019-05-07T05:55:39.530Z,64.43
2019-05-07T06:00:42.286Z,63.23
2019-05-07T06:05:52.254Z,62.60
2019-05-07T06:11:02.187Z,63.17
2019-05-07T06:16:08.414Z,63.16
2019-05-07T06:21:28.505Z,63.53
2019-05-07T06:26:31.898Z,62.46
2019-05-07T06:31:33.503Z,59.92
2019-05-07T06:36:38.042Z,60.96
2019-05-07T06:41:58.370Z,60.30
2019-05-07T06:47:02.310Z,61.21
2019-05-07T06:52:03.540Z,60.65
2019-05-07T06:57:05.428Z,61.73
2019-05-07T07:02:27.205Z,58.29
2019-05-07T07:07:36.559Z,58.96
2019-05-07T07:12:34.723Z,60.70
2019-05-07T07:17:36.606Z,58.54
2019-05-07T07:22:38.201Z,58.76
2019-05-07T07:27:39.845Z,57.17
2019-05-07T07:32:43.274Z,60.04
2019-05-07T07:37:44.852Z,59.74
2019-05-07T07:42:46.494Z,56.88
2019-05-07T07:47:49.169Z,56.98
2019-05-07T07:52:52.989Z,56.83
2019-05-07T07:57:54.378Z,56.21
2019-05-07T08:02:57.859Z,58.18
2019-05-07T08:07:59.349Z,57.52
2019-05-07T08:13:01.984Z,59.63
2019-05-07T08:18:03.959Z,57.38
2019-05-07T08:23:05.647Z,60.09
2019-05-07T08:28:07.182Z,62.95
2019-05-07T08:33:14.604Z,59.33
2019-05-07T08:38:14.243Z,56.47
2019-05-07T08:43:15.746Z,56.91
2019-05-07T08:48:23.101Z,55.43
2019-05-07T08:53:24.588Z,56.79
2019-05-07T08:58:26.170Z,54.79
2019-05-07T09:03:43.317Z,60.71
2019-05-07T09:08:45.212Z,55.18
2019-05-07T09:13:47.913Z,56.52
2019-05-07T09:18:49.479Z,60.19
2019-05-07T09:23:52.328Z,57.37
2019-05-07T09:29:02.663Z,56.47
2019-05-07T09:34:04.618Z,53.16
2019-05-07T09:39:07.316Z,58.55
2019-05-07T09:44:08.874Z,55.34
2019-05-07T09:49:12.023Z,55.31
2019-05-07T09:54:13.789Z,47.53
2019-05-07T09:59:15.428Z,49.74
2019-05-07T10:04:17.199Z,47.49
2019-05-07T10:09:18.779Z,50.42
2019-05-07T10:14:22.383Z,51.44
2019-05-07T10:19:24.767Z,50.48
2019-05-07T10:24:26.471Z,52.32
2019-05-07T10:29:28.287Z,50.08
2019-05-07T10:34:29.905Z,48.73
2019-05-07T10:39:32.529Z,45.98
2019-05-07T10:44:53.353Z,44.84
2019-05-07T10:50:13.651Z,47.46
2019-05-07T10:55:15.933Z,45.85
2019-05-07T11:00:23.619Z,49.23
2019-05-07T11:05:25.174Z,52.15
2019-05-07T11:10:26.856Z,48.94
2019-05-07T11:15:28.538Z,49.50
2019-05-07T11:20:31.981Z,52.07
2019-05-07T11:25:34.011Z,51.66
2019-05-07T11:30:35.727Z,47.54
2019-05-07T11:35:37.276Z,51.40
2019-05-07T11:40:39.055Z,50.52
2019-05-07T11:45:54.610Z,50.15
2019-05-07T11:51:03.274Z,49.65
2019-05-07T11:55:59.786Z,51.18
2019-05-07T12:01:04.482Z,51.93
2019-05-07T12:06:06.045Z,51.55
2019-05-07T12:11:07.984Z,52.33
2019-05-07T12:16:12.078Z,51.59
2019-05-07T12:21:20.627Z,47.78
2019-05-07T12:26:16.633Z,49.85
2019-05-07T12:31:20.043Z,49.34
2019-05-07T12:36:22.739Z,51.40
2019-05-07T12:41:33.760Z,50.88
2019-05-07T12:46:35.963Z,54.12
2019-05-07T12:51:42.741Z,52.73
2019-05-07T12:56:44.339Z,52.72
2019-05-07T13:01:54.106Z,49.11
2019-05-07T13:07:02.489Z,45.90
2019-05-07T13:12:04.792Z,49.02
2019-05-07T13:17:07.446Z,43.82
2019-05-07T13:22:09.220Z,45.77
2019-05-07T13:27:11.003Z,51.17
2019-05-07T13:32:14.514Z,51.66
2019-05-07T13:37:28.013Z,54.60
2019-05-07T13:42:38.209Z,53.66
2019-05-07T13:47:40.598Z,54.27
2019-05-07T13:52:43.623Z,53.41
2019-05-07T13:57:45.287Z,52.61
2019-05-07T14:02:48.175Z,52.19
2019-05-07T14:07:49.958Z,53.11
2019-05-07T14:12:52.207Z,53.42
2019-05-07T14:17:55.056Z,52.32
2019-05-07T14:22:56.891Z,53.64
2019-05-07T14:27:58.923Z,52.78
2019-05-07T14:33:06.119Z,53.86
2019-05-07T14:38:18.824Z,51.06
2019-05-07T14:43:25.232Z,53.31
2019-05-07T14:48:26.815Z,50.14
2019-05-07T14:53:28.567Z,48.72
2019-05-07T14:58:31.870Z,45.37
2019-05-07T15:03:33.847Z,44.91
2019-05-07T15:08:35.838Z,49.47
2019-05-07T15:13:37.987Z,50.68
2019-05-07T15:18:54.174Z,50.92
2019-05-07T15:23:56.344Z,49.94
2019-05-07T15:29:00.085Z,49.46
2019-05-07T15:34:02.975Z,50.51
2019-05-07T15:39:04.969Z,53.21
2019-05-07T15:44:08.480Z,54.13
2019-05-07T15:49:12.387Z,55.21
2019-05-07T15:54:13.597Z,55.99
2019-05-07T15:59:22.343Z,55.13
2019-05-07T16:04:26.056Z,55.50
2019-05-07T16:09:29.633Z,55.29
2019-05-07T16:14:32.127Z,53.51
2019-05-07T16:19:33.974Z,51.32
2019-05-07T16:24:35.485Z,53.47
2019-05-07T16:29:37.084Z,53.23
2019-05-07T16:34:38.806Z,54.04
2019-05-07T16:39:42.118Z,55.31
2019-05-07T16:44:43.819Z,50.92
2019-05-07T16:49:46.428Z,53.55
2019-05-07T16:54:47.932Z,52.08
2019-05-07T16:59:49.578Z,53.03
2019-05-07T17:05:12.163Z,54.34
2019-05-07T17:10:13.960Z,53.43
2019-05-07T17:15:16.449Z,55.86
2019-05-07T17:20:18.930Z,54.74
2019-05-07T17:25:38.585Z,55.30
2019-05-07T17:30:42.099Z,56.28
2019-05-07T17:35:46.092Z,58.95
2019-05-07T17:40:47.654Z,58.08
2019-05-07T17:45:52.059Z,58.89
2019-05-07T17:50:58.725Z,58.83
2019-05-07T17:56:02.109Z,57.21
2019-05-07T18:01:05.627Z,58.54
2019-05-07T18:06:07.502Z,58.59
2019-05-07T18:11:20.232Z,58.62
2019-05-07T18:16:32.624Z,57.84
2019-05-07T18:21:34.379Z,57.98
2019-05-07T18:26:36.167Z,59.67
2019-05-07T18:31:51.548Z,59.48
2019-05-07T18:36:53.237Z,59.60
2019-05-07T18:41:54.715Z,60.08
2019-05-07T18:46:56.290Z,60.37
2019-05-07T18:51:57.768Z,59.99
2019-05-07T18:57:02.339Z,60.66
2019-05-07T19:02:04.987Z,61.12
2019-05-07T19:07:06.879Z,61.80
2019-05-07T19:12:12.888Z,62.87
2019-05-07T19:17:13.974Z,65.83
2019-05-07T19:22:15.555Z,65.41
2019-05-07T19:27:17.206Z,64.82
2019-05-07T19:32:19.100Z,65.18
2019-05-07T19:37:22.353Z,65.51
2019-05-07T19:42:24.056Z,65.86
2019-05-07T19:47:25.636Z,64.97
2019-05-07T19:52:27.101Z,65.80
2019-05-07T19:57:33.496Z,65.54
2019-05-07T20:02:37.065Z,65.09
2019-05-07T20:07:38.768Z,66.08
2019-05-07T20:12:42.864Z,65.08
2019-05-07T20:17:44.511Z,64.33
2019-05-07T20:22:46.331Z,64.66
2019-05-07T20:27:47.854Z,64.46
2019-05-07T20:32:49.572Z,65.45
2019-05-07T20:37:52.078Z,64.95
2019-05-07T20:42:53.797Z,65.94
2019-05-07T20:47:55.281Z,65.99
2019-05-07T20:52:56.754Z,66.35
2019-05-07T20:57:58.341Z,65.73
2019-05-07T21:03:12.560Z,66.98
2019-05-07T21:08:15.744Z,67.79
2019-05-07T21:13:27.427Z,67.47
2019-05-07T21:18:22.952Z,67.63
2019-05-07T21:23:24.126Z,67.88
2019-05-07T21:28:26.095Z,66.90
2019-05-07T21:33:27.706Z,66.95
2019-05-07T21:38:29.322Z,66.17
2019-05-07T21:43:32.674Z,65.91
2019-05-07T21:48:34.378Z,66.79
2019-05-07T21:53:37.758Z,66.85
2019-05-07T21:58:46.939Z,66.55
2019-05-07T22:03:52.388Z,67.03
2019-05-07T22:08:54.832Z,67.30
2019-05-07T22:13:57.720Z,68.44
2019-05-07T22:18:59.335Z,68.73
2019-05-07T22:24:02.796Z,68.13
2019-05-07T22:29:04.334Z,68.03
2019-05-07T22:34:13.786Z,67.60
2019-05-07T22:39:15.405Z,67.77
2019-05-07T22:44:18.776Z,67.91
2019-05-07T22:49:22.727Z,67.37
2019-05-07T22:54:23.730Z,67.33
2019-05-07T22:59:25.469Z,68.77
2019-05-07T23:04:26.948Z,68.80
2019-05-07T23:09:28.566Z,70.13
2019-05-07T23:14:30.147Z,70.87
2019-05-07T23:19:32.714Z,71.20
2019-05-07T23:24:34.334Z,71.06
2019-05-07T23:29:35.808Z,71.32
2019-05-07T23:34:37.287Z,72.30
2019-05-07T23:39:42.381Z,72.29
2019-05-07T23:44:44.198Z,71.59
2019-05-07T23:49:45.719Z,71.51
2019-05-07T23:54:47.196Z,71.83
2019-05-07T23:59:48.663Z,72.43
